createdAt,value
2023-02-03T00:01:50.591Z,9.90
2023-02-03T00:04:17.904Z,11.23
2023-02-03T00:06:45.627Z,9.13
2023-02-03T00:09:13.129Z,10.27
2023-02-03T00:11:40.496Z,9.52
2023-02-03T00:14:08.077Z,9.32
2023-02-03T00:16:35.927Z,11.63
2023-02-03T00:19:03.787Z,12.25
2023-02-03T00:21:31.140Z,10.50
2023-02-03T00:23:58.403Z,8.10
2023-02-03T00:26:26.118Z,8.15
2023-02-03T00:28:53.416Z,9.13
2023-02-03T00:31:22.911Z,8.85
2023-02-03T00:33:57.768Z,8.93
2023-02-03T00:36:26.277Z,7.75
2023-02-03T00:38:54.270Z,7.68
2023-02-03T00:41:21.985Z,11.18
2023-02-03T00:43:49.982Z,9.60
2023-02-03T00:46:17.313Z,8.68
2023-02-03T00:48:44.668Z,10.18
2023-02-03T00:51:13.622Z,10.27
2023-02-03T00:53:40.837Z,8.20
2023-02-03T00:56:12.654Z,10.52
2023-02-03T00:58:40.875Z,7.00
2023-02-03T01:01:08.521Z,9.82
2023-02-03T01:03:35.934Z,8.32
2023-02-03T01:06:19.043Z,9.02
2023-02-03T01:08:48.090Z,7.40
2023-02-03T01:11:18.320Z,8.38
2023-02-03T01:13:45.833Z,9.20
2023-02-03T01:16:15.678Z,7.50
2023-02-03T01:18:44.079Z,8.23
2023-02-03T01:21:14.221Z,8.23
2023-02-03T01:23:41.918Z,7.65
2023-02-03T01:26:12.522Z,7.55
2023-02-03T01:28:40.453Z,7.03
2023-02-03T01:31:15.864Z,6.63
2023-02-03T01:33:46.296Z,6.70
2023-02-03T01:36:15.196Z,8.57
2023-02-03T01:38:42.712Z,7.15
2023-02-03T01:41:12.980Z,6.85
2023-02-03T01:43:43.039Z,7.13
2023-02-03T01:46:19.633Z,7.25
2023-02-03T01:48:46.968Z,8.15
2023-02-03T01:51:14.349Z,7.28
2023-02-03T01:53:42.106Z,5.68
2023-02-03T01:56:09.768Z,6.13
2023-02-03T01:58:41.159Z,7.40
2023-02-03T02:01:08.623Z,6.68
2023-02-03T02:03:44.432Z,8.18
2023-02-03T02:06:14.185Z,5.93
2023-02-03T02:08:46.148Z,8.43
2023-02-03T02:11:13.573Z,6.07
2023-02-03T02:13:43.497Z,8.32
2023-02-03T02:16:15.983Z,6.22
2023-02-03T02:19:19.886Z,5.75
2023-02-03T02:24:38.613Z,7.55
2023-02-03T02:27:20.108Z,5.13
2023-02-03T02:30:05.516Z,5.53
2023-02-03T02:32:48.237Z,5.45
2023-02-03T02:35:24.783Z,6.55
2023-02-03T02:38:02.579Z,8.57
2023-02-03T02:40:46.701Z,5.18
2023-02-03T02:43:47.692Z,4.10
2023-02-03T02:46:20.807Z,6.88
2023-02-03T02:48:59.254Z,6.10
2023-02-03T02:51:29.810Z,5.45
2023-02-03T02:54:00.990Z,4.97
2023-02-03T02:56:31.712Z,6.57
2023-02-03T02:59:02.256Z,5.10
2023-02-03T03:01:29.625Z,4.90
2023-02-03T03:03:59.645Z,5.72
2023-02-03T03:06:33.882Z,6.22
2023-02-03T03:09:12.186Z,5.45
2023-02-03T03:11:58.185Z,6.40
2023-02-03T03:14:29.896Z,5.90
2023-02-03T03:17:01.959Z,4.70
2023-02-03T03:19:34.673Z,5.45
2023-02-03T03:22:05.972Z,6.68
2023-02-03T03:24:46.331Z,7.82
2023-02-03T03:27:19.205Z,6.10
2023-02-03T03:30:11.908Z,6.38
2023-02-03T03:32:39.753Z,5.23
2023-02-03T03:35:08.040Z,6.72
2023-02-03T03:37:44.879Z,4.95
2023-02-03T03:40:27.828Z,4.47
2023-02-03T03:43:01.389Z,4.70
2023-02-03T03:45:34.555Z,5.78
2023-02-03T03:50:37.035Z,4.20
2023-02-03T03:53:07.373Z,4.18
2023-02-03T03:55:37.217Z,4.68
2023-02-03T03:58:09.478Z,5.57
2023-02-03T04:00:40.274Z,6.43
2023-02-03T04:03:14.273Z,4.85
2023-02-03T04:05:42.803Z,5.63
2023-02-03T04:08:10.165Z,5.45
2023-02-03T04:10:41.104Z,6.13
2023-02-03T04:13:10.229Z,4.90
2023-02-03T04:15:38.172Z,4.00
2023-02-03T04:18:05.774Z,3.50
2023-02-03T04:20:33.324Z,5.60
2023-02-03T04:23:00.724Z,4.55
2023-02-03T04:25:27.991Z,3.65
2023-02-03T04:27:55.516Z,4.60
2023-02-03T04:30:23.122Z,5.05
2023-02-03T04:32:50.378Z,4.78
2023-02-03T04:35:17.843Z,4.10
2023-02-03T04:37:45.618Z,4.03
2023-02-03T04:40:13.524Z,3.95
2023-02-03T04:42:41.476Z,3.00
2023-02-03T04:45:10.459Z,4.57
2023-02-03T04:47:39.770Z,5.30
2023-02-03T04:50:07.656Z,4.15
2023-02-03T04:52:34.887Z,6.55
2023-02-03T04:55:04.005Z,4.90
2023-02-03T04:57:31.516Z,4.25
2023-02-03T04:59:58.927Z,5.47
2023-02-03T05:02:26.209Z,4.20
2023-02-03T05:04:53.777Z,3.40
2023-02-03T05:07:20.997Z,5.18
2023-02-03T05:09:48.229Z,3.50
2023-02-03T05:12:15.527Z,6.72
2023-02-03T05:14:42.820Z,4.63
2023-02-03T05:17:10.043Z,3.90
2023-02-03T05:19:37.280Z,3.33
2023-02-03T05:22:04.597Z,4.50
2023-02-03T05:24:31.880Z,3.63
2023-02-03T05:26:59.116Z,4.15
2023-02-03T05:29:26.393Z,4.57
2023-02-03T05:31:53.735Z,5.72
2023-02-03T05:34:21.013Z,5.25
2023-02-03T05:36:48.290Z,3.53
2023-02-03T05:39:15.572Z,3.33
2023-02-03T05:41:57.304Z,3.58
2023-02-03T05:44:27.757Z,3.38
2023-02-03T05:46:58.270Z,3.85
2023-02-03T05:49:25.749Z,5.45
2023-02-03T05:51:54.995Z,3.80
2023-02-03T05:54:22.378Z,3.83
2023-02-03T05:56:49.798Z,4.97
2023-02-03T05:59:17.184Z,3.40
2023-02-03T06:01:44.429Z,4.20
2023-02-03T06:04:11.827Z,3.80
2023-02-03T06:06:39.225Z,4.15
2023-02-03T06:09:08.335Z,3.95
2023-02-03T06:11:36.333Z,4.13
2023-02-03T06:14:04.436Z,3.90
2023-02-03T06:16:31.718Z,3.60
2023-02-03T06:19:00.805Z,3.40
2023-02-03T06:21:28.611Z,3.03
2023-02-03T06:23:56.617Z,3.15
2023-02-03T06:26:25.139Z,4.53
2023-02-03T06:28:52.627Z,3.72
2023-02-03T06:31:20.111Z,3.90
2023-02-03T06:33:48.298Z,3.63
2023-02-03T06:36:15.702Z,3.10
2023-02-03T06:38:42.987Z,3.95
2023-02-03T06:41:10.225Z,3.38
2023-02-03T06:43:37.530Z,3.50
2023-02-03T06:46:04.894Z,5.03
2023-02-03T06:48:32.302Z,3.72
2023-02-03T06:50:59.613Z,3.92
2023-02-03T06:53:27.101Z,4.32
2023-02-03T06:55:54.392Z,3.22
2023-02-03T06:58:24.572Z,5.10
2023-02-03T07:00:56.277Z,3.78
2023-02-03T07:03:23.663Z,3.85
2023-02-03T07:05:50.933Z,4.00
2023-02-03T07:08:18.219Z,3.50
2023-02-03T07:10:45.534Z,5.85
2023-02-03T07:13:12.889Z,3.33
2023-02-03T07:15:40.982Z,4.95
2023-02-03T07:18:08.344Z,3.78
2023-02-03T07:20:36.087Z,4.40
2023-02-03T07:23:04.421Z,3.63
2023-02-03T07:25:31.756Z,5.30
2023-02-03T07:27:59.035Z,4.75
2023-02-03T07:30:26.887Z,4.53
2023-02-03T07:32:54.312Z,4.47
2023-02-03T07:35:22.035Z,5.20
2023-02-03T07:37:49.310Z,5.22
2023-02-03T07:40:16.965Z,5.40
2023-02-03T07:42:45.926Z,5.63
2023-02-03T07:45:15.549Z,3.97
2023-02-03T07:47:43.814Z,4.72
2023-02-03T07:50:12.123Z,5.13
2023-02-03T07:52:39.880Z,6.43
2023-02-03T07:55:07.794Z,6.13
2023-02-03T07:57:35.029Z,4.18
2023-02-03T08:00:02.649Z,6.40
2023-02-03T08:02:40.058Z,5.70
2023-02-03T08:05:08.031Z,5.57
2023-02-03T08:07:35.866Z,6.03
2023-02-03T08:10:03.552Z,5.90
2023-02-03T08:12:30.823Z,6.70
2023-02-03T08:14:58.133Z,6.38
2023-02-03T08:17:25.681Z,7.32
2023-02-03T08:19:53.071Z,4.70
2023-02-03T08:22:20.413Z,6.47
2023-02-03T08:24:48.163Z,6.18
2023-02-03T08:27:17.848Z,5.22
2023-02-03T08:29:46.276Z,6.53
2023-02-03T08:32:22.068Z,6.13
2023-02-03T08:34:50.061Z,7.13
2023-02-03T08:37:19.585Z,5.70
2023-02-03T08:39:47.550Z,6.10
2023-02-03T08:42:14.878Z,5.70
2023-02-03T08:44:44.108Z,5.07
2023-02-03T08:47:12.513Z,6.30
2023-02-03T08:49:39.999Z,6.50
2023-02-03T08:52:10.386Z,5.75
2023-02-03T08:54:38.169Z,7.15
2023-02-03T08:57:06.402Z,5.80
2023-02-03T08:59:36.193Z,6.72
2023-02-03T09:02:05.242Z,6.68
2023-02-03T09:04:33.701Z,12.13
2023-02-03T09:07:02.699Z,17.38
2023-02-03T09:09:31.209Z,17.42
2023-02-03T09:12:02.062Z,20.55
2023-02-03T09:14:30.399Z,23.00
2023-02-03T09:16:57.795Z,19.92
2023-02-03T09:19:25.424Z,12.00
2023-02-03T09:21:52.750Z,12.57
2023-02-03T09:24:20.206Z,10.70
2023-02-03T09:26:47.465Z,12.48
2023-02-03T09:29:14.761Z,9.93
2023-02-03T09:31:42.157Z,9.68
2023-02-03T09:34:09.755Z,11.68
2023-02-03T09:36:37.669Z,8.85
2023-02-03T09:39:05.087Z,8.60
2023-02-03T09:42:14.831Z,9.70
2023-02-03T09:44:42.003Z,8.30
2023-02-03T09:47:20.809Z,10.43
2023-02-03T09:49:53.593Z,8.98
2023-02-03T09:52:24.922Z,8.73
2023-02-03T09:55:10.654Z,9.35
2023-02-03T09:57:45.911Z,9.07
2023-02-03T10:00:28.438Z,8.15
2023-02-03T10:03:08.025Z,8.73
2023-02-03T10:06:06.723Z,7.57
2023-02-03T10:09:05.142Z,9.35
2023-02-03T10:11:55.562Z,9.82
2023-02-03T10:15:07.289Z,10.65
2023-02-03T10:17:41.349Z,9.98
2023-02-03T10:20:08.607Z,10.00
2023-02-03T10:22:48.154Z,9.68
2023-02-03T10:25:38.607Z,10.07
2023-02-03T10:28:18.592Z,11.27
2023-02-03T10:30:54.529Z,13.15
2023-02-03T10:33:22.211Z,11.85
2023-02-03T10:35:58.350Z,11.20
2023-02-03T10:38:52.455Z,13.98
2023-02-03T10:41:20.806Z,13.85
2023-02-03T10:43:54.842Z,15.35
2023-02-03T10:46:29.738Z,13.82
2023-02-03T10:48:57.889Z,12.60
2023-02-03T10:51:27.720Z,13.73
2023-02-03T10:53:55.205Z,15.50
2023-02-03T10:56:29.547Z,13.18
2023-02-03T10:58:59.399Z,15.57
2023-02-03T11:01:29.130Z,14.77
2023-02-03T11:04:05.800Z,14.98
2023-02-03T11:06:34.200Z,9.93
2023-02-03T11:09:01.569Z,16.35
2023-02-03T11:11:32.565Z,15.20
2023-02-03T11:14:02.774Z,14.00
2023-02-03T11:16:33.667Z,15.23
2023-02-03T11:19:07.444Z,14.50
2023-02-03T11:21:37.484Z,14.82
2023-02-03T11:24:24.256Z,15.63
2023-02-03T11:26:56.799Z,13.85
2023-02-03T11:29:31.467Z,18.08
2023-02-03T11:32:03.177Z,15.82
2023-02-03T11:34:35.283Z,16.98
2023-02-03T11:37:45.375Z,18.33
2023-02-03T11:40:15.560Z,28.50
2023-02-03T11:42:46.007Z,22.67
2023-02-03T11:45:30.009Z,24.08
2023-02-03T11:48:31.032Z,23.35
2023-02-03T11:51:36.050Z,21.77
2023-02-03T11:54:36.352Z,23.48
2023-02-03T11:57:09.792Z,22.13
2023-02-03T11:59:45.575Z,25.35
2023-02-03T12:02:54.988Z,20.17
2023-02-03T12:05:43.195Z,22.38
2023-02-03T12:08:25.809Z,22.40
2023-02-03T12:11:04.955Z,25.77
2023-02-03T12:14:07.297Z,22.15
2023-02-03T12:16:56.475Z,20.20
2023-02-03T12:19:59.200Z,18.80
2023-02-03T12:22:45.143Z,20.85
2023-02-03T12:25:52.667Z,20.58
2023-02-03T12:28:32.451Z,21.90
2023-02-03T12:31:11.026Z,17.95
2023-02-03T12:33:44.334Z,17.45
2023-02-03T12:36:18.872Z,18.20
2023-02-03T12:39:27.820Z,22.70
2023-02-03T12:42:10.515Z,19.40
2023-02-03T12:44:47.239Z,20.20
2023-02-03T12:47:26.427Z,19.92
2023-02-03T12:49:59.645Z,17.30
2023-02-03T12:55:23.530Z,18.77
2023-02-03T12:57:58.771Z,15.75
2023-02-03T13:00:47.782Z,17.20
2023-02-03T13:03:28.843Z,17.20
2023-02-03T13:06:24.856Z,19.75
2023-02-03T13:09:07.005Z,20.42
2023-02-03T13:11:44.206Z,18.58
2023-02-03T13:14:24.019Z,17.90
2023-02-03T13:17:15.673Z,18.83
2023-02-03T13:19:48.972Z,18.35
2023-02-03T13:22:17.492Z,16.45
2023-02-03T13:24:56.803Z,16.00
2023-02-03T13:27:44.324Z,13.93
2023-02-03T13:30:18.495Z,16.70
2023-02-03T13:32:56.495Z,17.45
2023-02-03T13:35:47.868Z,15.48
2023-02-03T13:38:58.996Z,15.25
2023-02-03T13:41:40.560Z,14.00
2023-02-03T13:44:15.449Z,16.13
2023-02-03T13:46:42.937Z,12.55
2023-02-03T13:49:24.018Z,15.30
2023-02-03T13:51:51.795Z,14.27
2023-02-03T13:54:38.885Z,14.40
2023-02-03T13:57:22.112Z,15.23
2023-02-03T13:59:49.913Z,13.52
2023-02-03T14:02:20.300Z,15.60
2023-02-03T14:04:48.541Z,12.00
2023-02-03T14:07:39.553Z,13.57
2023-02-03T14:10:12.786Z,13.20
2023-02-03T14:12:52.214Z,14.52
2023-02-03T14:15:25.842Z,12.98
2023-02-03T14:17:53.305Z,13.38
2023-02-03T14:20:29.501Z,12.55
2023-02-03T14:23:05.547Z,13.18
2023-02-03T14:26:00.205Z,11.48
2023-02-03T14:28:45.035Z,13.80
2023-02-03T14:31:17.391Z,10.75
2023-02-03T14:34:01.559Z,10.73
2023-02-03T14:36:34.969Z,11.82
2023-02-03T14:39:17.504Z,11.95
2023-02-03T14:42:15.211Z,11.33
2023-02-03T14:45:03.585Z,12.48
2023-02-03T14:47:33.886Z,13.70
2023-02-03T14:50:04.088Z,12.10
2023-02-03T14:53:05.483Z,12.82
2023-02-03T14:55:52.218Z,11.90
2023-02-03T14:58:43.061Z,10.45
2023-02-03T15:01:25.692Z,10.20
2023-02-03T15:04:11.058Z,11.60
2023-02-03T15:06:49.051Z,10.95
2023-02-03T15:09:37.859Z,11.07
2023-02-03T15:12:25.977Z,11.05
2023-02-03T15:14:54.232Z,11.38
2023-02-03T15:17:25.831Z,13.23
2023-02-03T15:19:53.735Z,11.55
2023-02-03T15:22:30.414Z,12.45
2023-02-03T15:25:00.605Z,11.52
2023-02-03T15:27:30.359Z,11.80
2023-02-03T15:30:00.723Z,12.82
2023-02-03T15:32:39.912Z,10.00
2023-02-03T15:35:12.292Z,12.93
2023-02-03T15:37:50.669Z,15.93
2023-02-03T15:40:23.426Z,11.60
2023-02-03T15:43:22.939Z,14.70
2023-02-03T15:45:57.700Z,14.32
2023-02-03T15:48:47.235Z,12.43
2023-02-03T15:51:31.726Z,12.63
2023-02-03T15:54:15.746Z,12.07
2023-02-03T15:56:54.773Z,11.80
2023-02-03T15:59:27.420Z,11.68
2023-02-03T16:01:54.947Z,13.23
2023-02-03T16:04:25.082Z,12.68
2023-02-03T16:06:55.578Z,13.23
2023-02-03T16:09:49.121Z,12.68
2023-02-03T16:14:55.927Z,12.10
2023-02-03T16:17:33.679Z,15.82
2023-02-03T16:20:12.880Z,14.00
2023-02-03T16:22:42.522Z,12.95
2023-02-03T16:25:23.675Z,12.88
2023-02-03T16:28:32.611Z,11.25
2023-02-03T16:31:32.831Z,11.82
2023-02-03T16:34:20.454Z,33.30
2023-02-03T16:37:06.232Z,27.92
2023-02-03T16:39:51.921Z,18.45
2023-02-03T16:42:39.447Z,14.38
2023-02-03T16:45:33.299Z,18.25
2023-02-03T16:48:19.177Z,15.48
2023-02-03T16:50:53.992Z,17.70
2023-02-03T16:53:27.216Z,16.80
2023-02-03T16:55:57.209Z,13.35
2023-02-03T16:58:25.299Z,17.33
2023-02-03T17:00:54.286Z,18.67
2023-02-03T17:03:25.842Z,19.80
2023-02-03T17:05:53.921Z,16.70
2023-02-03T17:08:22.650Z,17.08
2023-02-03T17:10:50.485Z,14.10
2023-02-03T17:13:19.980Z,18.38
2023-02-03T17:15:49.985Z,14.85
2023-02-03T17:18:20.315Z,15.20
2023-02-03T17:20:49.200Z,16.58
2023-02-03T17:23:17.032Z,13.75
2023-02-03T17:25:46.285Z,15.27
2023-02-03T17:28:14.574Z,13.43
2023-02-03T17:30:42.287Z,17.65
2023-02-03T17:33:13.135Z,14.63
2023-02-03T17:35:42.554Z,17.30
2023-02-03T17:38:12.087Z,19.38
2023-02-03T17:54:38.863Z,15.73
2023-02-03T17:57:06.292Z,17.38
2023-02-03T17:59:35.561Z,15.77
2023-02-03T18:02:02.892Z,15.25
2023-02-03T18:04:30.508Z,19.48
2023-02-03T18:06:57.927Z,16.77
2023-02-03T18:09:25.282Z,16.30
2023-02-03T18:11:52.553Z,15.98
2023-02-03T18:14:19.850Z,17.30
2023-02-03T18:16:47.417Z,15.35
2023-02-03T18:19:16.166Z,18.10
2023-02-03T18:21:43.988Z,18.17
2023-02-03T18:24:13.545Z,15.25
2023-02-03T18:26:49.797Z,17.02
2023-02-03T18:29:17.621Z,15.85
2023-02-03T18:31:45.167Z,18.10
2023-02-03T18:34:12.763Z,15.68
2023-02-03T18:39:09.328Z,16.33
2023-02-03T18:41:39.023Z,15.23
2023-02-03T18:44:06.380Z,16.50
2023-02-03T18:46:34.213Z,16.27
2023-02-03T18:49:01.832Z,18.55
2023-02-03T18:51:29.077Z,15.82
2023-02-03T18:53:58.188Z,18.70
2023-02-03T18:56:28.079Z,16.70
2023-02-03T18:58:55.293Z,16.70
2023-02-03T19:01:25.034Z,16.17
2023-02-03T19:03:54.622Z,18.70
2023-02-03T19:06:22.765Z,17.13
2023-02-03T19:08:50.891Z,16.88
2023-02-03T19:11:18.571Z,16.05
2023-02-03T19:13:49.352Z,17.80
2023-02-03T19:16:17.918Z,18.83
2023-02-03T19:18:45.516Z,18.92
2023-02-03T19:21:13.855Z,18.38
2023-02-03T19:23:41.930Z,16.75
2023-02-03T19:26:10.231Z,17.27
2023-02-03T19:28:38.591Z,18.88
2023-02-03T19:31:15.201Z,17.25
2023-02-03T19:33:43.137Z,17.45
2023-02-03T19:36:11.323Z,16.80
2023-02-03T19:38:38.918Z,17.15
2023-02-03T19:41:07.714Z,17.67
2023-02-03T19:43:35.057Z,18.17
2023-02-03T19:46:02.585Z,20.15
2023-02-03T19:48:37.339Z,19.23
2023-02-03T19:51:04.862Z,19.00
2023-02-03T19:53:32.240Z,18.52
2023-02-03T19:55:59.556Z,18.30
2023-02-03T19:58:29.231Z,18.83
2023-02-03T20:00:56.881Z,17.90
2023-02-03T20:03:24.606Z,16.13
2023-02-03T20:05:54.454Z,16.52
2023-02-03T20:08:27.919Z,17.17
2023-02-03T20:10:55.256Z,15.80
2023-02-03T20:13:22.554Z,16.08
2023-02-03T20:15:49.979Z,19.45
2023-02-03T20:18:17.333Z,17.70
2023-02-03T20:20:53.041Z,17.58
2023-02-03T20:23:20.348Z,17.92
2023-02-03T20:25:54.702Z,16.92
2023-02-03T20:28:26.214Z,17.73
2023-02-03T20:30:56.711Z,16.67
2023-02-03T20:33:27.739Z,16.35
2023-02-03T20:35:56.417Z,17.08
2023-02-03T20:38:24.101Z,16.05
2023-02-03T20:40:51.460Z,17.48
2023-02-03T20:43:21.885Z,16.52
2023-02-03T20:45:49.762Z,16.00
2023-02-03T20:48:19.891Z,17.98
2023-02-03T20:50:47.659Z,16.48
2023-02-03T20:53:21.629Z,16.25
2023-02-03T20:55:50.341Z,14.95
2023-02-03T20:58:24.110Z,15.65
2023-02-03T21:00:52.487Z,17.95
2023-02-03T21:03:38.882Z,17.20
2023-02-03T21:06:17.615Z,16.77
2023-02-03T21:08:46.702Z,15.00
2023-02-03T21:11:19.468Z,16.75
2023-02-03T21:13:49.711Z,13.77
2023-02-03T21:16:25.114Z,15.98
2023-02-03T21:18:55.029Z,15.15
2023-02-03T21:21:42.332Z,15.57
2023-02-03T21:24:37.818Z,15.05
2023-02-03T21:27:22.212Z,14.45
2023-02-03T21:29:50.132Z,15.10
2023-02-03T21:32:17.351Z,16.92
2023-02-03T21:34:45.740Z,17.95
2023-02-03T21:37:31.867Z,14.10
2023-02-03T21:39:59.216Z,14.52
2023-02-03T21:42:43.443Z,15.13
2023-02-03T21:45:19.899Z,12.73
2023-02-03T21:47:49.429Z,16.15
2023-02-03T21:50:34.264Z,15.43
2023-02-03T21:53:07.683Z,13.18
2023-02-03T21:55:40.115Z,14.57
2023-02-03T21:58:26.173Z,14.70
2023-02-03T22:00:55.768Z,14.00
2023-02-03T22:03:25.415Z,14.30
2023-02-03T22:06:01.391Z,14.05
2023-02-03T22:08:28.639Z,12.90
2023-02-03T22:10:55.910Z,21.42
2023-02-03T22:13:23.217Z,14.35
2023-02-03T22:15:50.566Z,14.60
2023-02-03T22:18:17.875Z,15.70
2023-02-03T22:20:45.153Z,15.00
2023-02-03T22:23:12.554Z,15.98
2023-02-03T22:25:40.054Z,13.32
2023-02-03T22:28:07.499Z,15.40
2023-02-03T22:30:34.820Z,13.70
2023-02-03T22:33:02.253Z,16.60
2023-02-03T22:35:30.509Z,17.30
2023-02-03T22:37:58.007Z,21.63
2023-02-03T22:40:25.674Z,20.55
2023-02-03T22:42:53.168Z,22.05
2023-02-03T22:45:20.545Z,24.65
2023-02-03T22:47:48.193Z,18.35
2023-02-03T22:50:17.438Z,15.73
2023-02-03T22:52:47.744Z,17.27
2023-02-03T22:55:14.937Z,17.35
2023-02-03T22:57:42.441Z,14.82
2023-02-03T23:00:13.642Z,15.05
2023-02-03T23:02:41.030Z,17.00
2023-02-03T23:05:10.307Z,17.00
2023-02-03T23:07:37.619Z,18.15
2023-02-03T23:10:06.208Z,15.02
2023-02-03T23:12:33.882Z,13.90
2023-02-03T23:15:01.560Z,13.63
2023-02-03T23:17:29.102Z,13.18
2023-02-03T23:19:56.467Z,16.35
2023-02-03T23:22:23.719Z,14.00
2023-02-03T23:24:51.016Z,12.05
2023-02-03T23:27:18.233Z,12.02
2023-02-03T23:29:45.473Z,15.77
2023-02-03T23:32:12.679Z,12.60
2023-02-03T23:34:58.112Z,16.23
2023-02-03T23:37:25.388Z,15.80
2023-02-03T23:39:52.659Z,12.45
2023-02-03T23:42:19.892Z,12.63
2023-02-03T23:44:47.197Z,13.05
2023-02-03T23:47:14.704Z,12.90
2023-02-03T23:49:42.246Z,13.40
2023-02-03T23:52:09.526Z,11.82
2023-02-03T23:54:36.782Z,13.43
2023-02-03T23:57:04.870Z,12.30
2023-02-03T23:59:32.127Z,14.55
